sensor_id;sensor_type;location;lat;lon;timestamp;pressure;altitude;pressure_sealevel;temperature;humidity
28306;BME280;7516;43.570;1.448;2023-04-01T00:01:55;99870.97;;;11.69;86.23
28306;BME280;7516;43.570;1.448;2023-04-01T00:04:23;99866.50;;;11.70;87.02
28306;BME280;7516;43.570;1.448;2023-04-01T00:06:50;99861.81;;;11.65;87.61
28306;BME280;7516;43.570;1.448;2023-04-01T00:09:18;99874.94;;;11.65;87.87
28306;BME280;7516;43.570;1.448;2023-04-01T00:11:48;99887.13;;;11.58;87.10
28306;BME280;7516;43.570;1.448;2023-04-01T00:14:15;99878.25;;;11.59;88.05
28306;BME280;7516;43.570;1.448;2023-04-01T00:16:43;99874.34;;;11.55;87.64
28306;BME280;7516;43.570;1.448;2023-04-01T00:19:10;99875.81;;;11.58;87.77
28306;BME280;7516;43.570;1.448;2023-04-01T00:21:38;99875.63;;;11.59;88.06
28306;BME280;7516;43.570;1.448;2023-04-01T00:24:06;99871.19;;;11.60;88.84
28306;BME280;7516;43.570;1.448;2023-04-01T00:26:33;99861.84;;;11.57;88.27
28306;BME280;7516;43.570;1.448;2023-04-01T00:29:02;99867.97;;;11.50;88.08
28306;BME280;7516;43.570;1.448;2023-04-01T00:31:30;99855.19;;;11.47;88.22
28306;BME280;7516;43.570;1.448;2023-04-01T00:33:57;99848.31;;;11.46;88.67
28306;BME280;7516;43.570;1.448;2023-04-01T00:36:25;99848.31;;;11.46;88.45
28306;BME280;7516;43.570;1.448;2023-04-01T00:38:52;99845.84;;;11.44;89.00
28306;BME280;7516;43.570;1.448;2023-04-01T00:41:21;99855.25;;;11.39;89.22
28306;BME280;7516;43.570;1.448;2023-04-01T00:43:50;99840.16;;;11.41;88.91
28306;BME280;7516;43.570;1.448;2023-04-01T00:46:19;99840.50;;;11.38;89.20
28306;BME280;7516;43.570;1.448;2023-04-01T00:48:49;99844.47;;;11.34;88.41
28306;BME280;7516;43.570;1.448;2023-04-01T00:51:22;99844.94;;;11.37;89.36
28306;BME280;7516;43.570;1.448;2023-04-01T00:53:52;99844.00;;;11.30;88.72
28306;BME280;7516;43.570;1.448;2023-04-01T00:56:22;99850.41;;;11.27;88.84
28306;BME280;7516;43.570;1.448;2023-04-01T00:58:57;99852.72;;;11.22;89.60
28306;BME280;7516;43.570;1.448;2023-04-01T01:01:28;99857.16;;;11.22;89.22
28306;BME280;7516;43.570;1.448;2023-04-01T01:03:57;99832.72;;;11.21;89.60
28306;BME280;7516;43.570;1.448;2023-04-01T01:06:35;99834.38;;;11.22;89.45
28306;BME280;7516;43.570;1.448;2023-04-01T01:09:17;99842.53;;;11.27;89.46
28306;BME280;7516;43.570;1.448;2023-04-01T01:11:52;99838.25;;;11.26;89.64
28306;BME280;7516;43.570;1.448;2023-04-01T01:14:37;99837.66;;;11.24;89.46
28306;BME280;7516;43.570;1.448;2023-04-01T01:17:16;99848.81;;;11.18;89.79
28306;BME280;7516;43.570;1.448;2023-04-01T01:20:14;99848.81;;;11.18;89.50
28306;BME280;7516;43.570;1.448;2023-04-01T01:22:58;99841.91;;;11.17;89.37
28306;BME280;7516;43.570;1.448;2023-04-01T01:25:38;99843.59;;;11.10;89.50
28306;BME280;7516;43.570;1.448;2023-04-01T01:28:22;99842.94;;;11.08;90.19
28306;BME280;7516;43.570;1.448;2023-04-01T01:30:58;99834.75;;;11.11;90.85
28306;BME280;7516;43.570;1.448;2023-04-01T01:36:30;99846.63;;;11.30;89.09
28306;BME280;7516;43.570;1.448;2023-04-01T01:39:01;99843.47;;;11.35;88.87
28306;BME280;7516;43.570;1.448;2023-04-01T01:41:31;99861.88;;;11.26;89.15
28306;BME280;7516;43.570;1.448;2023-04-01T01:44:00;99853.56;;;11.23;89.27
28306;BME280;7516;43.570;1.448;2023-04-01T01:46:31;99852.72;;;11.22;89.05
28306;BME280;7516;43.570;1.448;2023-04-01T01:49:00;99847.00;;;11.19;89.71
28306;BME280;7516;43.570;1.448;2023-04-01T01:51:29;99851.09;;;11.21;89.35
28306;BME280;7516;43.570;1.448;2023-04-01T01:53:56;99848.63;;;11.20;90.20
28306;BME280;7516;43.570;1.448;2023-04-01T01:56:27;99840.81;;;11.12;89.59
28306;BME280;7516;43.570;1.448;2023-04-01T01:58:59;99846.88;;;11.12;89.71
28306;BME280;7516;43.570;1.448;2023-04-01T02:01:31;99862.31;;;11.07;90.08
28306;BME280;7516;43.570;1.448;2023-04-01T02:04:00;99838.03;;;11.13;89.83
28306;BME280;7516;43.570;1.448;2023-04-01T02:06:32;99841.75;;;11.19;89.99
28306;BME280;7516;43.570;1.448;2023-04-01T02:09:03;99867.66;;;11.22;88.51
28306;BME280;7516;43.570;1.448;2023-04-01T02:11:34;99837.94;;;11.29;88.58
28306;BME280;7516;43.570;1.448;2023-04-01T02:14:06;99823.00;;;11.30;89.00
28306;BME280;7516;43.570;1.448;2023-04-01T02:16:39;99829.19;;;11.37;89.57
28306;BME280;7516;43.570;1.448;2023-04-01T02:19:11;99826.22;;;11.40;88.33
28306;BME280;7516;43.570;1.448;2023-04-01T02:21:43;99818.84;;;11.36;88.65
28306;BME280;7516;43.570;1.448;2023-04-01T02:24:13;99824.47;;;11.32;88.29
28306;BME280;7516;43.570;1.448;2023-04-01T02:26:42;99823.81;;;11.30;89.20
28306;BME280;7516;43.570;1.448;2023-04-01T02:29:11;99817.66;;;11.23;89.09
28306;BME280;7516;43.570;1.448;2023-04-01T02:31:39;99821.41;;;11.21;89.47
28306;BME280;7516;43.570;1.448;2023-04-01T02:34:08;99827.31;;;11.23;89.63
28306;BME280;7516;43.570;1.448;2023-04-01T02:36:36;99827.81;;;11.18;89.38
28306;BME280;7516;43.570;1.448;2023-04-01T02:39:06;99820.50;;;11.14;89.88
28306;BME280;7516;43.570;1.448;2023-04-01T02:41:39;99826.72;;;11.13;89.88
28306;BME280;7516;43.570;1.448;2023-04-01T02:44:07;99824.25;;;11.11;89.43
28306;BME280;7516;43.570;1.448;2023-04-01T02:46:35;99841.34;;;11.07;90.06
28306;BME280;7516;43.570;1.448;2023-04-01T02:49:03;99827.91;;;11.02;90.46
28306;BME280;7516;43.570;1.448;2023-04-01T02:51:31;99817.13;;;10.97;90.01
28306;BME280;7516;43.570;1.448;2023-04-01T02:53:58;99818.13;;;10.96;89.84
28306;BME280;7516;43.570;1.448;2023-04-01T02:56:27;99820.25;;;10.92;90.25
28306;BME280;7516;43.570;1.448;2023-04-01T02:58:56;99814.56;;;10.89;90.68
28306;BME280;7516;43.570;1.448;2023-04-01T03:01:23;99814.06;;;10.85;90.46
28306;BME280;7516;43.570;1.448;2023-04-01T03:03:51;99810.63;;;10.85;90.17
28306;BME280;7516;43.570;1.448;2023-04-01T03:06:18;99808.53;;;10.80;90.51
28306;BME280;7516;43.570;1.448;2023-04-01T03:08:46;99807.06;;;10.78;90.61
28306;BME280;7516;43.570;1.448;2023-04-01T03:11:13;99819.53;;;10.76;90.87
28306;BME280;7516;43.570;1.448;2023-04-01T03:13:42;99802.00;;;10.76;90.93
28306;BME280;7516;43.570;1.448;2023-04-01T03:16:10;99810.66;;;10.77;90.86
28306;BME280;7516;43.570;1.448;2023-04-01T03:18:37;99807.75;;;10.72;90.64
28306;BME280;7516;43.570;1.448;2023-04-01T03:21:15;99801.22;;;10.68;90.83
28306;BME280;7516;43.570;1.448;2023-04-01T03:23:43;99804.81;;;10.67;91.27
28306;BME280;7516;43.570;1.448;2023-04-01T03:26:10;99795.31;;;10.66;91.35
28306;BME280;7516;43.570;1.448;2023-04-01T03:28:38;99788.28;;;10.66;91.46
28306;BME280;7516;43.570;1.448;2023-04-01T03:31:08;99801.09;;;10.61;90.77
28306;BME280;7516;43.570;1.448;2023-04-01T03:33:35;99795.31;;;10.66;91.95
28306;BME280;7516;43.570;1.448;2023-04-01T03:36:03;99805.19;;;10.64;92.09
28306;BME280;7516;43.570;1.448;2023-04-01T03:38:32;99791.41;;;10.62;92.01
28306;BME280;7516;43.570;1.448;2023-04-01T03:41:00;99789.94;;;10.59;92.26
28306;BME280;7516;43.570;1.448;2023-04-01T03:43:28;99792.06;;;10.55;92.58
28306;BME280;7516;43.570;1.448;2023-04-01T03:45:55;99793.88;;;10.63;92.54
28306;BME280;7516;43.570;1.448;2023-04-01T03:48:25;99794.84;;;10.62;92.56
28306;BME280;7516;43.570;1.448;2023-04-01T03:50:53;99786.00;;;10.63;92.81
28306;BME280;7516;43.570;1.448;2023-04-01T03:53:20;99792.56;;;10.59;93.16
28306;BME280;7516;43.570;1.448;2023-04-01T03:55:48;99783.41;;;10.63;92.93
28306;BME280;7516;43.570;1.448;2023-04-01T03:58:17;99783.19;;;10.65;93.11
28306;BME280;7516;43.570;1.448;2023-04-01T04:00:45;99778.28;;;10.70;92.98
28306;BME280;7516;43.570;1.448;2023-04-01T04:03:13;99786.13;;;10.70;92.51
28306;BME280;7516;43.570;1.448;2023-04-01T04:05:47;99782.69;;;10.69;93.67
28306;BME280;7516;43.570;1.448;2023-04-01T04:08:16;99788.09;;;10.68;92.93
28306;BME280;7516;43.570;1.448;2023-04-01T04:10:44;99782.06;;;10.67;93.42
28306;BME280;7516;43.570;1.448;2023-04-01T04:13:12;99777.34;;;10.63;93.01
28306;BME280;7516;43.570;1.448;2023-04-01T04:15:39;99777.78;;;10.66;92.97
28306;BME280;7516;43.570;1.448;2023-04-01T04:18:07;99785.16;;;10.71;92.90
28306;BME280;7516;43.570;1.448;2023-04-01T04:20:34;99762.56;;;10.70;92.71
28306;BME280;7516;43.570;1.448;2023-04-01T04:23:03;99768.78;;;10.69;92.88
28306;BME280;7516;43.570;1.448;2023-04-01T04:25:31;99776.94;;;10.74;92.15
28306;BME280;7516;43.570;1.448;2023-04-01T04:27:58;99770.25;;;10.71;92.13
28306;BME280;7516;43.570;1.448;2023-04-01T04:30:26;99772.88;;;10.71;92.58
28306;BME280;7516;43.570;1.448;2023-04-01T04:32:54;99777.59;;;10.76;92.28
28306;BME280;7516;43.570;1.448;2023-04-01T04:35:21;99776.75;;;10.75;92.15
28306;BME280;7516;43.570;1.448;2023-04-01T04:37:49;99782.50;;;10.79;91.88
28306;BME280;7516;43.570;1.448;2023-04-01T04:40:18;99775.13;;;10.74;91.45
28306;BME280;7516;43.570;1.448;2023-04-01T04:42:45;99782.50;;;10.79;91.83
28306;BME280;7516;43.570;1.448;2023-04-01T04:45:13;99787.75;;;10.79;91.24
28306;BME280;7516;43.570;1.448;2023-04-01T04:47:40;99782.66;;;10.77;91.58
28306;BME280;7516;43.570;1.448;2023-04-01T04:50:08;99782.19;;;10.74;91.72
28306;BME280;7516;43.570;1.448;2023-04-01T04:52:36;99792.97;;;10.79;91.51
28306;BME280;7516;43.570;1.448;2023-04-01T04:55:04;99785.94;;;10.79;91.36
28306;BME280;7516;43.570;1.448;2023-04-01T04:57:33;99778.22;;;10.78;91.56
28306;BME280;7516;43.570;1.448;2023-04-01T05:00:01;99781.34;;;10.73;91.60
28306;BME280;7516;43.570;1.448;2023-04-01T05:02:29;99788.72;;;10.78;91.55
28306;BME280;7516;43.570;1.448;2023-04-01T05:04:56;99777.94;;;10.73;91.49
28306;BME280;7516;43.570;1.448;2023-04-01T05:07:24;99784.78;;;10.74;91.69
28306;BME280;7516;43.570;1.448;2023-04-01T05:09:51;99775.13;;;10.74;91.76
28306;BME280;7516;43.570;1.448;2023-04-01T05:12:19;99772.50;;;10.74;91.53
28306;BME280;7516;43.570;1.448;2023-04-01T05:14:48;99782.69;;;10.69;92.27
28306;BME280;7516;43.570;1.448;2023-04-01T05:17:15;99774.56;;;10.64;91.93
28306;BME280;7516;43.570;1.448;2023-04-01T05:19:42;99775.34;;;10.65;92.25
28306;BME280;7516;43.570;1.448;2023-04-01T05:22:10;99768.28;;;10.65;92.48
28306;BME280;7516;43.570;1.448;2023-04-01T05:24:37;99776.16;;;10.65;92.48
28306;BME280;7516;43.570;1.448;2023-04-01T05:27:05;99781.91;;;10.61;92.52
28306;BME280;7516;43.570;1.448;2023-04-01T05:29:33;99776.97;;;10.66;92.84
28306;BME280;7516;43.570;1.448;2023-04-01T05:32:02;99766.03;;;10.62;92.42
28306;BME280;7516;43.570;1.448;2023-04-01T05:34:30;99783.56;;;10.62;92.51
28306;BME280;7516;43.570;1.448;2023-04-01T05:36:57;99771.72;;;10.66;93.23
28306;BME280;7516;43.570;1.448;2023-04-01T05:39:24;99784.50;;;10.69;92.86
28306;BME280;7516;43.570;1.448;2023-04-01T05:41:52;99780.56;;;10.65;92.84
28306;BME280;7516;43.570;1.448;2023-04-01T05:44:19;99780.25;;;10.68;93.00
28306;BME280;7516;43.570;1.448;2023-04-01T05:46:47;99780.25;;;10.68;92.87
28306;BME280;7516;43.570;1.448;2023-04-01T05:49:16;99777.63;;;10.68;93.05
28306;BME280;7516;43.570;1.448;2023-04-01T05:51:43;99790.72;;;10.68;93.28
28306;BME280;7516;43.570;1.448;2023-04-01T05:54:11;99788.44;;;10.73;93.19
28306;BME280;7516;43.570;1.448;2023-04-01T05:56:38;99796.28;;;10.73;93.21
28306;BME280;7516;43.570;1.448;2023-04-01T05:59:06;99804.63;;;10.76;93.13
28306;BME280;7516;43.570;1.448;2023-04-01T06:01:33;99795.75;;;10.77;92.83
28306;BME280;7516;43.570;1.448;2023-04-01T06:04:01;99797.91;;;10.74;92.87
28306;BME280;7516;43.570;1.448;2023-04-01T06:06:31;99804.41;;;10.86;92.65
28306;BME280;7516;43.570;1.448;2023-04-01T06:09:07;99802.78;;;10.85;92.65
28306;BME280;7516;43.570;1.448;2023-04-01T06:11:44;99809.00;;;10.84;92.54
28306;BME280;7516;43.570;1.448;2023-04-01T06:14:27;99807.69;;;10.88;92.39
28306;BME280;7516;43.570;1.448;2023-04-01T06:17:06;99821.44;;;10.90;92.32
28306;BME280;7516;43.570;1.448;2023-04-01T06:19:43;99810.13;;;10.89;92.74
28306;BME280;7516;43.570;1.448;2023-04-01T06:22:26;99820.09;;;10.94;92.03
28306;BME280;7516;43.570;1.448;2023-04-01T06:25:16;99809.44;;;10.96;92.11
28306;BME280;7516;43.570;1.448;2023-04-01T06:27:57;99826.44;;;11.00;91.89
28306;BME280;7516;43.570;1.448;2023-04-01T06:30:35;99828.91;;;11.01;91.38
28306;BME280;7516;43.570;1.448;2023-04-01T06:33:21;99831.84;;;11.06;91.45
28306;BME280;7516;43.570;1.448;2023-04-01T06:36:14;99827.53;;;11.13;90.30
28306;BME280;7516;43.570;1.448;2023-04-01T06:39:07;99832.44;;;11.16;90.34
28306;BME280;7516;43.570;1.448;2023-04-01T06:45:10;99831.25;;;11.19;90.34
28306;BME280;7516;43.570;1.448;2023-04-01T06:47:52;99830.59;;;11.25;90.36
28306;BME280;7516;43.570;1.448;2023-04-01T06:50:28;99836.13;;;11.30;89.37
28306;BME280;7516;43.570;1.448;2023-04-01T06:53:05;99826.72;;;11.36;89.96
28306;BME280;7516;43.570;1.448;2023-04-01T06:55:42;99834.44;;;11.37;89.59
28306;BME280;7516;43.570;1.448;2023-04-01T06:58:18;99826.66;;;11.44;89.34
28306;BME280;7516;43.570;1.448;2023-04-01T07:00:49;99830.59;;;11.48;88.96
28306;BME280;7516;43.570;1.448;2023-04-01T07:03:21;99838.13;;;11.51;89.09
28306;BME280;7516;43.570;1.448;2023-04-01T07:05:50;99831.53;;;11.55;88.46
28306;BME280;7516;43.570;1.448;2023-04-01T07:08:21;99829.88;;;11.54;87.88
28306;BME280;7516;43.570;1.448;2023-04-01T07:10:55;99835.44;;;11.59;87.39
28306;BME280;7516;43.570;1.448;2023-04-01T07:13:27;99835.44;;;11.59;87.72
28306;BME280;7516;43.570;1.448;2023-04-01T07:16:03;99834.47;;;11.60;87.62
28306;BME280;7516;43.570;1.448;2023-04-01T07:18:37;99848.03;;;11.63;87.83
28306;BME280;7516;43.570;1.448;2023-04-01T07:21:19;99830.47;;;11.64;86.36
28306;BME280;7516;43.570;1.448;2023-04-01T07:23:50;99833.56;;;11.67;87.28
28306;BME280;7516;43.570;1.448;2023-04-01T07:26:23;99835.38;;;11.67;87.31
28306;BME280;7516;43.570;1.448;2023-04-01T07:28:52;99836.31;;;11.74;86.28
28306;BME280;7516;43.570;1.448;2023-04-01T07:31:30;99829.09;;;11.76;85.88
28306;BME280;7516;43.570;1.448;2023-04-01T07:34:05;99836.81;;;11.78;86.90
28306;BME280;7516;43.570;1.448;2023-04-01T07:36:40;99827.56;;;11.82;85.72
28306;BME280;7516;43.570;1.448;2023-04-01T07:39:18;99841.16;;;11.85;86.30
28306;BME280;7516;43.570;1.448;2023-04-01T07:41:57;99814.47;;;11.96;86.50
28306;BME280;7516;43.570;1.448;2023-04-01T07:44:34;99816.91;;;11.98;85.19
28306;BME280;7516;43.570;1.448;2023-04-01T07:47:15;99817.81;;;12.05;86.24
28306;BME280;7516;43.570;1.448;2023-04-01T07:49:54;99818.78;;;12.12;84.68
28306;BME280;7516;43.570;1.448;2023-04-01T07:52:29;99821.66;;;12.17;85.38
28306;BME280;7516;43.570;1.448;2023-04-01T07:55:04;99815.41;;;12.18;83.70
28306;BME280;7516;43.570;1.448;2023-04-01T07:57:38;99815.88;;;12.22;84.64
28306;BME280;7516;43.570;1.448;2023-04-01T08:00:16;99804.00;;;12.26;83.59
28306;BME280;7516;43.570;1.448;2023-04-01T08:05:46;99828.72;;;12.31;82.21
28306;BME280;7516;43.570;1.448;2023-04-01T08:08:23;99810.16;;;12.33;83.25
28306;BME280;7516;43.570;1.448;2023-04-01T08:11:00;99795.31;;;12.40;82.97
28306;BME280;7516;43.570;1.448;2023-04-01T08:13:35;99802.09;;;12.49;82.71
28306;BME280;7516;43.570;1.448;2023-04-01T08:16:12;99802.03;;;12.57;81.83
28306;BME280;7516;43.570;1.448;2023-04-01T08:18:46;99788.78;;;12.65;83.04
28306;BME280;7516;43.570;1.448;2023-04-01T08:21:21;99781.38;;;12.75;82.66
28306;BME280;7516;43.570;1.448;2023-04-01T08:23:53;99782.56;;;12.88;81.61
28306;BME280;7516;43.570;1.448;2023-04-01T08:26:29;99784.44;;;12.94;80.56
28306;BME280;7516;43.570;1.448;2023-04-01T08:29:02;99784.31;;;13.02;81.01
28306;BME280;7516;43.570;1.448;2023-04-01T08:31:34;99770.81;;;13.05;79.34
28306;BME280;7516;43.570;1.448;2023-04-01T08:34:08;99785.97;;;13.03;79.90
28306;BME280;7516;43.570;1.448;2023-04-01T08:36:40;99773.81;;;13.02;79.68
28306;BME280;7516;43.570;1.448;2023-04-01T08:39:12;99768.19;;;13.05;78.53
28306;BME280;7516;43.570;1.448;2023-04-01T08:42:00;99762.28;;;13.17;77.82
28306;BME280;7516;43.570;1.448;2023-04-01T08:47:40;99774.81;;;13.37;75.45
28306;BME280;7516;43.570;1.448;2023-04-01T08:50:50;99769.59;;;13.43;76.27
28306;BME280;7516;43.570;1.448;2023-04-01T08:53:40;99767.97;;;13.42;75.03
28306;BME280;7516;43.570;1.448;2023-04-01T08:56:17;99755.56;;;13.36;72.32
28306;BME280;7516;43.570;1.448;2023-04-01T08:59:25;99770.78;;;13.41;70.93
28306;BME280;7516;43.570;1.448;2023-04-01T09:02:20;99767.84;;;13.50;70.68
28306;BME280;7516;43.570;1.448;2023-04-01T09:05:12;99744.81;;;13.59;69.56
28306;BME280;7516;43.570;1.448;2023-04-01T09:07:55;99761.00;;;13.56;67.77
28306;BME280;7516;43.570;1.448;2023-04-01T09:10:44;99749.03;;;13.53;67.26
28306;BME280;7516;43.570;1.448;2023-04-01T09:13:31;99759.94;;;13.50;68.08
28306;BME280;7516;43.570;1.448;2023-04-01T09:16:30;99773.47;;;13.47;63.89
28306;BME280;7516;43.570;1.448;2023-04-01T09:19:23;99729.56;;;13.54;61.89
28306;BME280;7516;43.570;1.448;2023-04-01T09:22:10;99745.88;;;13.65;61.36
28306;BME280;7516;43.570;1.448;2023-04-01T09:24:58;99810.72;;;13.66;60.08
28306;BME280;7516;43.570;1.448;2023-04-01T09:27:30;99763.22;;;13.80;59.90
28306;BME280;7516;43.570;1.448;2023-04-01T09:30:33;99763.84;;;13.82;57.91
28306;BME280;7516;43.570;1.448;2023-04-01T09:33:43;99758.63;;;13.89;59.28
28306;BME280;7516;43.570;1.448;2023-04-01T09:36:30;99742.09;;;13.74;59.25
28306;BME280;7516;43.570;1.448;2023-04-01T09:39:22;99742.03;;;13.67;59.88
28306;BME280;7516;43.570;1.448;2023-04-01T09:42:14;99755.22;;;13.67;59.00
28306;BME280;7516;43.570;1.448;2023-04-01T09:44:46;99748.63;;;13.78;58.81
28306;BME280;7516;43.570;1.448;2023-04-01T09:47:25;99734.81;;;13.76;57.72
28306;BME280;7516;43.570;1.448;2023-04-01T09:50:29;99720.47;;;13.78;57.82
28306;BME280;7516;43.570;1.448;2023-04-01T09:53:12;99730.41;;;13.83;57.81
28306;BME280;7516;43.570;1.448;2023-04-01T10:05:22;99713.91;;;14.02;56.00
28306;BME280;7516;43.570;1.448;2023-04-01T10:14:53;99713.66;;;14.31;51.48
28306;BME280;7516;43.570;1.448;2023-04-01T10:20:46;99705.25;;;14.49;51.80
28306;BME280;7516;43.570;1.448;2023-04-01T10:23:53;99725.56;;;14.55;50.75
28306;BME280;7516;43.570;1.448;2023-04-01T10:29:58;99687.50;;;14.91;52.25
28306;BME280;7516;43.570;1.448;2023-04-01T10:32:45;99688.94;;;15.00;51.70
28306;BME280;7516;43.570;1.448;2023-04-01T10:38:48;99699.91;;;15.17;50.55
28306;BME280;7516;43.570;1.448;2023-04-01T10:41:46;99696.47;;;15.16;50.45
28306;BME280;7516;43.570;1.448;2023-04-01T10:48:10;99679.41;;;15.25;51.65
28306;BME280;7516;43.570;1.448;2023-04-01T10:51:01;99677.38;;;15.47;51.99
28306;BME280;7516;43.570;1.448;2023-04-01T10:56:58;99674.94;;;15.32;51.66
28306;BME280;7516;43.570;1.448;2023-04-01T10:59:57;99665.19;;;15.33;52.11
28306;BME280;7516;43.570;1.448;2023-04-01T11:21:27;99699.56;;;14.11;64.03
28306;BME280;7516;43.570;1.448;2023-04-01T11:24:20;99722.78;;;13.94;64.17
28306;BME280;7516;43.570;1.448;2023-04-01T11:27:02;99712.22;;;13.88;64.81
28306;BME280;7516;43.570;1.448;2023-04-01T11:29:57;99722.97;;;13.37;71.73
28306;BME280;7516;43.570;1.448;2023-04-01T11:32:39;99712.28;;;13.03;77.70
28306;BME280;7516;43.570;1.448;2023-04-01T11:35:31;99707.53;;;13.13;80.27
28306;BME280;7516;43.570;1.448;2023-04-01T11:38:09;99712.47;;;13.16;81.05
28306;BME280;7516;43.570;1.448;2023-04-01T11:40:47;99691.06;;;13.19;82.61
28306;BME280;7516;43.570;1.448;2023-04-01T11:43:24;99678.13;;;13.24;82.13
28306;BME280;7516;43.570;1.448;2023-04-01T11:46:01;99675.25;;;13.47;78.77
28306;BME280;7516;43.570;1.448;2023-04-01T11:48:55;99687.13;;;13.36;79.36
28306;BME280;7516;43.570;1.448;2023-04-01T11:52:04;99678.63;;;13.34;79.06
28306;BME280;7516;43.570;1.448;2023-04-01T11:54:56;99679.84;;;13.38;75.50
28306;BME280;7516;43.570;1.448;2023-04-01T11:57:46;99673.38;;;13.41;75.70
28306;BME280;7516;43.570;1.448;2023-04-01T12:03:29;99678.84;;;13.39;73.84
28306;BME280;7516;43.570;1.448;2023-04-01T12:06:05;99689.63;;;13.44;72.53
28306;BME280;7516;43.570;1.448;2023-04-01T12:08:41;99684.38;;;13.44;70.99
28306;BME280;7516;43.570;1.448;2023-04-01T12:11:17;99693.31;;;13.50;71.64
28306;BME280;7516;43.570;1.448;2023-04-01T12:13:52;99691.31;;;13.52;72.44
28306;BME280;7516;43.570;1.448;2023-04-01T12:16:36;99701.78;;;13.45;71.84
28306;BME280;7516;43.570;1.448;2023-04-01T12:19:12;99689.03;;;13.49;70.63
28306;BME280;7516;43.570;1.448;2023-04-01T12:21:50;99683.41;;;13.52;70.36
28306;BME280;7516;43.570;1.448;2023-04-01T12:24:40;99692.13;;;13.52;71.97
28306;BME280;7516;43.570;1.448;2023-04-01T12:27:35;99679.97;;;13.51;71.41
28306;BME280;7516;43.570;1.448;2023-04-01T12:30:39;99695.75;;;13.51;70.47
28306;BME280;7516;43.570;1.448;2023-04-01T12:33:40;99689.69;;;13.51;72.76
28306;BME280;7516;43.570;1.448;2023-04-01T12:36:18;99673.38;;;13.41;72.54
28306;BME280;7516;43.570;1.448;2023-04-01T12:38:58;99671.44;;;13.49;73.39
28306;BME280;7516;43.570;1.448;2023-04-01T12:41:35;99681.66;;;13.38;72.92
28306;BME280;7516;43.570;1.448;2023-04-01T12:48:02;99659.56;;;13.32;72.90
28306;BME280;7516;43.570;1.448;2023-04-01T12:50:43;99659.94;;;13.29;73.59
28306;BME280;7516;43.570;1.448;2023-04-01T12:53:32;99665.41;;;13.28;74.27
28306;BME280;7516;43.570;1.448;2023-04-01T12:56:08;99680.97;;;13.29;77.41
28306;BME280;7516;43.570;1.448;2023-04-01T12:59:07;99648.09;;;12.97;79.47
28306;BME280;7516;43.570;1.448;2023-04-01T13:01:59;99648.34;;;12.60;81.58
28306;BME280;7516;43.570;1.448;2023-04-01T13:10:57;99655.56;;;12.72;77.54
28306;BME280;7516;43.570;1.448;2023-04-01T13:13:48;99694.53;;;12.33;86.12
28306;BME280;7516;43.570;1.448;2023-04-01T13:16:25;99693.06;;;11.57;93.47
28306;BME280;7516;43.570;1.448;2023-04-01T13:18:58;99707.94;;;11.04;96.53
28306;BME280;7516;43.570;1.448;2023-04-01T13:21:38;99670.50;;;10.65;97.45
28306;BME280;7516;43.570;1.448;2023-04-01T13:24:17;99664.28;;;10.66;100.00
28306;BME280;7516;43.570;1.448;2023-04-01T13:26:56;99656.09;;;10.69;100.00
28306;BME280;7516;43.570;1.448;2023-04-01T13:29:31;99659.34;;;10.71;100.00
28306;BME280;7516;43.570;1.448;2023-04-01T13:32:06;99632.44;;;10.77;100.00
28306;BME280;7516;43.570;1.448;2023-04-01T13:34:46;99622.78;;;10.77;100.00
28306;BME280;7516;43.570;1.448;2023-04-01T13:37:25;99618.22;;;10.94;100.00
28306;BME280;7516;43.570;1.448;2023-04-01T13:40:23;99616.00;;;11.06;100.00
28306;BME280;7516;43.570;1.448;2023-04-01T13:42:56;99636.91;;;11.14;100.00
28306;BME280;7516;43.570;1.448;2023-04-01T13:45:29;99608.88;;;11.14;100.00
28306;BME280;7516;43.570;1.448;2023-04-01T13:48:25;99610.69;;;11.28;100.00
28306;BME280;7516;43.570;1.448;2023-04-01T13:51:06;99615.59;;;11.31;100.00
28306;BME280;7516;43.570;1.448;2023-04-01T13:54:05;99610.16;;;11.33;100.00
28306;BME280;7516;43.570;1.448;2023-04-01T13:56:50;99613.59;;;11.34;100.00
28306;BME280;7516;43.570;1.448;2023-04-01T13:59:55;99614.69;;;11.39;100.00
28306;BME280;7516;43.570;1.448;2023-04-01T14:02:57;99604.63;;;11.28;100.00
28306;BME280;7516;43.570;1.448;2023-04-01T14:05:50;99598.56;;;11.27;100.00
28306;BME280;7516;43.570;1.448;2023-04-01T14:08:34;99583.28;;;11.31;100.00
28306;BME280;7516;43.570;1.448;2023-04-01T14:11:16;99582.94;;;11.49;100.00
28306;BME280;7516;43.570;1.448;2023-04-01T14:13:53;99583.13;;;11.47;100.00
28306;BME280;7516;43.570;1.448;2023-04-01T14:16:55;99577.03;;;11.47;100.00
28306;BME280;7516;43.570;1.448;2023-04-01T14:20:02;99564.91;;;11.46;100.00
28306;BME280;7516;43.570;1.448;2023-04-01T14:22:42;99573.97;;;11.28;99.74
28306;BME280;7516;43.570;1.448;2023-04-01T14:25:29;99580.84;;;11.29;100.00
28306;BME280;7516;43.570;1.448;2023-04-01T14:28:15;99585.34;;;11.21;99.25
28306;BME280;7516;43.570;1.448;2023-04-01T14:33:46;99585.09;;;11.16;97.28
28306;BME280;7516;43.570;1.448;2023-04-01T14:36:42;99579.06;;;10.92;98.56
28306;BME280;7516;43.570;1.448;2023-04-01T14:39:22;99580.78;;;11.00;99.52
28306;BME280;7516;43.570;1.448;2023-04-01T14:42:08;99607.97;;;10.84;100.00
28306;BME280;7516;43.570;1.448;2023-04-01T14:45:02;99602.38;;;10.65;100.00
28306;BME280;7516;43.570;1.448;2023-04-01T14:47:51;99612.91;;;10.56;100.00
28306;BME280;7516;43.570;1.448;2023-04-01T14:50:22;99628.09;;;10.38;100.00
28306;BME280;7516;43.570;1.448;2023-04-01T14:52:59;99629.28;;;10.36;100.00
28306;BME280;7516;43.570;1.448;2023-04-01T14:55:44;99642.22;;;10.37;100.00
28306;BME280;7516;43.570;1.448;2023-04-01T14:58:17;99663.06;;;10.14;100.00
28306;BME280;7516;43.570;1.448;2023-04-01T15:01:00;99691.09;;;9.98;100.00
28306;BME280;7516;43.570;1.448;2023-04-01T15:03:39;99729.97;;;9.46;100.00
28306;BME280;7516;43.570;1.448;2023-04-01T15:06:36;99743.28;;;8.70;100.00
28306;BME280;7516;43.570;1.448;2023-04-01T15:09:14;99726.69;;;8.45;100.00
28306;BME280;7516;43.570;1.448;2023-04-01T15:11:53;99721.16;;;8.40;100.00
28306;BME280;7516;43.570;1.448;2023-04-01T15:14:36;99714.34;;;8.21;100.00
28306;BME280;7516;43.570;1.448;2023-04-01T15:17:20;99713.50;;;8.12;100.00
28306;BME280;7516;43.570;1.448;2023-04-01T15:20:22;99728.53;;;8.18;100.00
28306;BME280;7516;43.570;1.448;2023-04-01T15:23:11;99688.84;;;8.07;100.00